sensor_id;sensor_type;location;lat;lon;timestamp;P1;durP1;ratioP1;P2;durP2;ratioP2
64857;SDS011;51335;51.148;6.950;2023-08-21T00:00:11;6.72;;;3.40;;
64857;SDS011;51335;51.148;6.950;2023-08-21T00:00:42;7.60;;;3.40;;
64857;SDS011;51335;51.148;6.950;2023-08-21T00:01:12;6.57;;;3.58;;
64857;SDS011;51335;51.148;6.950;2023-08-21T00:01:42;5.72;;;3.20;;
64857;SDS011;51335;51.148;6.950;2023-08-21T00:02:13;8.82;;;3.47;;
64857;SDS011;51335;51.148;6.950;2023-08-21T00:02:43;5.30;;;3.00;;
64857;SDS011;51335;51.148;6.950;2023-08-21T00:03:13;7.50;;;3.22;;
64857;SDS011;51335;51.148;6.950;2023-08-21T00:03:44;7.72;;;3.90;;
64857;SDS011;51335;51.148;6.950;2023-08-21T00:04:14;5.80;;;3.30;;
64857;SDS011;51335;51.148;6.950;2023-08-21T00:04:45;5.82;;;3.20;;
64857;SDS011;51335;51.148;6.950;2023-08-21T00:05:15;7.88;;;3.30;;
64857;SDS011;51335;51.148;6.950;2023-08-21T00:05:45;8.73;;;3.40;;
64857;SDS011;51335;51.148;6.950;2023-08-21T00:06:16;5.43;;;3.10;;
64857;SDS011;51335;51.148;6.950;2023-08-21T00:06:46;7.53;;;3.15;;
64857;SDS011;51335;51.148;6.950;2023-08-21T00:07:16;8.80;;;3.70;;
64857;SDS011;51335;51.148;6.950;2023-08-21T00:07:46;7.65;;;3.20;;
64857;SDS011;51335;51.148;6.950;2023-08-21T00:08:17;5.63;;;2.97;;
64857;SDS011;51335;51.148;6.950;2023-08-21T00:08:47;10.13;;;3.60;;
64857;SDS011;51335;51.148;6.950;2023-08-21T00:09:17;6.50;;;3.50;;
64857;SDS011;51335;51.148;6.950;2023-08-21T00:09:48;5.57;;;3.28;;
64857;SDS011;51335;51.148;6.950;2023-08-21T00:10:18;7.50;;;3.25;;
64857;SDS011;51335;51.148;6.950;2023-08-21T00:10:48;6.85;;;3.47;;
64857;SDS011;51335;51.148;6.950;2023-08-21T00:11:19;14.38;;;3.40;;
64857;SDS011;51335;51.148;6.950;2023-08-21T00:11:49;6.28;;;3.30;;
64857;SDS011;51335;51.148;6.950;2023-08-21T00:12:19;8.35;;;3.63;;
64857;SDS011;51335;51.148;6.950;2023-08-21T00:12:49;6.15;;;3.33;;
64857;SDS011;51335;51.148;6.950;2023-08-21T00:13:20;10.63;;;3.55;;
64857;SDS011;51335;51.148;6.950;2023-08-21T00:13:50;8.98;;;3.30;;
64857;SDS011;51335;51.148;6.950;2023-08-21T00:14:20;5.38;;;3.10;;
64857;SDS011;51335;51.148;6.950;2023-08-21T00:14:50;8.65;;;3.60;;
64857;SDS011;51335;51.148;6.950;2023-08-21T00:15:21;7.22;;;3.22;;
64857;SDS011;51335;51.148;6.950;2023-08-21T00:15:51;8.70;;;3.13;;
64857;SDS011;51335;51.148;6.950;2023-08-21T00:16:21;8.05;;;3.63;;
64857;SDS011;51335;51.148;6.950;2023-08-21T00:16:51;8.40;;;3.67;;
64857;SDS011;51335;51.148;6.950;2023-08-21T00:17:22;5.38;;;3.22;;
64857;SDS011;51335;51.148;6.950;2023-08-21T00:17:52;9.45;;;3.40;;
64857;SDS011;51335;51.148;6.950;2023-08-21T00:18:22;7.13;;;3.40;;
64857;SDS011;51335;51.148;6.950;2023-08-21T00:18:52;5.55;;;3.33;;
64857;SDS011;51335;51.148;6.950;2023-08-21T00:19:23;6.68;;;3.45;;
64857;SDS011;51335;51.148;6.950;2023-08-21T00:19:53;7.13;;;3.38;;
64857;SDS011;51335;51.148;6.950;2023-08-21T00:20:23;5.50;;;3.50;;
64857;SDS011;51335;51.148;6.950;2023-08-21T00:20:54;5.63;;;3.40;;
64857;SDS011;51335;51.148;6.950;2023-08-21T00:21:24;9.20;;;3.45;;
64857;SDS011;51335;51.148;6.950;2023-08-21T00:21:54;11.35;;;3.90;;
64857;SDS011;51335;51.148;6.950;2023-08-21T00:22:24;5.65;;;3.38;;
64857;SDS011;51335;51.148;6.950;2023-08-21T00:22:55;9.73;;;3.40;;
64857;SDS011;51335;51.148;6.950;2023-08-21T00:23:25;8.23;;;3.67;;
64857;SDS011;51335;51.148;6.950;2023-08-21T00:23:55;11.25;;;3.90;;
64857;SDS011;51335;51.148;6.950;2023-08-21T00:24:26;9.13;;;3.83;;
64857;SDS011;51335;51.148;6.950;2023-08-21T00:24:56;6.35;;;3.60;;
64857;SDS011;51335;51.148;6.950;2023-08-21T00:25:26;5.88;;;3.38;;
64857;SDS011;51335;51.148;6.950;2023-08-21T00:25:57;7.78;;;3.60;;
64857;SDS011;51335;51.148;6.950;2023-08-21T00:26:27;9.95;;;3.40;;
64857;SDS011;51335;51.148;6.950;2023-08-21T00:26:57;7.63;;;3.50;;
64857;SDS011;51335;51.148;6.950;2023-08-21T00:27:27;11.73;;;3.60;;
64857;SDS011;51335;51.148;6.950;2023-08-21T00:27:58;8.55;;;3.72;;
64857;SDS011;51335;51.148;6.950;2023-08-21T00:28:28;5.40;;;3.40;;
64857;SDS011;51335;51.148;6.950;2023-08-21T00:28:58;6.30;;;3.38;;
64857;SDS011;51335;51.148;6.950;2023-08-21T00:29:29;5.13;;;3.30;;
64857;SDS011;51335;51.148;6.950;2023-08-21T00:30:00;9.35;;;3.55;;
64857;SDS011;51335;51.148;6.950;2023-08-21T00:30:30;9.52;;;3.47;;
64857;SDS011;51335;51.148;6.950;2023-08-21T00:31:03;9.68;;;3.50;;
64857;SDS011;51335;51.148;6.950;2023-08-21T00:31:35;9.70;;;3.40;;
64857;SDS011;51335;51.148;6.950;2023-08-21T00:32:05;8.07;;;3.47;;
64857;SDS011;51335;51.148;6.950;2023-08-21T00:32:35;9.75;;;3.50;;
64857;SDS011;51335;51.148;6.950;2023-08-21T00:33:06;7.97;;;3.38;;
64857;SDS011;51335;51.148;6.950;2023-08-21T00:33:36;7.80;;;3.53;;
64857;SDS011;51335;51.148;6.950;2023-08-21T00:34:06;7.15;;;3.20;;
64857;SDS011;51335;51.148;6.950;2023-08-21T00:34:36;8.40;;;3.53;;
64857;SDS011;51335;51.148;6.950;2023-08-21T00:35:07;5.82;;;3.60;;
64857;SDS011;51335;51.148;6.950;2023-08-21T00:35:37;11.27;;;3.90;;
64857;SDS011;51335;51.148;6.950;2023-08-21T00:36:07;9.13;;;3.90;;
64857;SDS011;51335;51.148;6.950;2023-08-21T00:36:38;8.43;;;3.65;;
64857;SDS011;51335;51.148;6.950;2023-08-21T00:37:08;7.00;;;3.50;;
64857;SDS011;51335;51.148;6.950;2023-08-21T00:37:38;6.55;;;3.60;;
64857;SDS011;51335;51.148;6.950;2023-08-21T00:38:08;9.02;;;3.70;;
64857;SDS011;51335;51.148;6.950;2023-08-21T00:38:39;10.30;;;3.25;;
64857;SDS011;51335;51.148;6.950;2023-08-21T00:39:09;5.82;;;3.40;;
64857;SDS011;51335;51.148;6.950;2023-08-21T00:39:39;8.70;;;3.30;;
64857;SDS011;51335;51.148;6.950;2023-08-21T00:40:10;9.90;;;3.72;;
64857;SDS011;51335;51.148;6.950;2023-08-21T00:40:40;8.07;;;3.85;;
64857;SDS011;51335;51.148;6.950;2023-08-21T00:41:11;8.25;;;3.38;;
64857;SDS011;51335;51.148;6.950;2023-08-21T00:41:42;9.90;;;3.38;;
64857;SDS011;51335;51.148;6.950;2023-08-21T00:42:12;7.10;;;3.30;;
64857;SDS011;51335;51.148;6.950;2023-08-21T00:42:42;8.82;;;3.65;;
64857;SDS011;51335;51.148;6.950;2023-08-21T00:43:12;11.40;;;3.35;;
64857;SDS011;51335;51.148;6.950;2023-08-21T00:43:43;7.05;;;3.47;;
64857;SDS011;51335;51.148;6.950;2023-08-21T00:44:13;9.00;;;3.63;;
64857;SDS011;51335;51.148;6.950;2023-08-21T00:44:43;8.70;;;3.42;;
64857;SDS011;51335;51.148;6.950;2023-08-21T00:45:13;11.50;;;3.38;;
64857;SDS011;51335;51.148;6.950;2023-08-21T00:45:44;5.55;;;3.58;;
64857;SDS011;51335;51.148;6.950;2023-08-21T00:46:16;9.40;;;3.53;;
64857;SDS011;51335;51.148;6.950;2023-08-21T00:46:46;6.93;;;3.60;;
64857;SDS011;51335;51.148;6.950;2023-08-21T00:47:17;8.38;;;3.80;;
64857;SDS011;51335;51.148;6.950;2023-08-21T00:47:48;7.72;;;3.38;;
64857;SDS011;51335;51.148;6.950;2023-08-21T00:48:18;6.80;;;3.40;;
64857;SDS011;51335;51.148;6.950;2023-08-21T00:48:49;8.18;;;3.47;;
64857;SDS011;51335;51.148;6.950;2023-08-21T00:49:20;12.93;;;3.35;;
64857;SDS011;51335;51.148;6.950;2023-08-21T00:49:50;12.68;;;3.72;;
64857;SDS011;51335;51.148;6.950;2023-08-21T00:50:21;6.47;;;3.53;;
64857;SDS011;51335;51.148;6.950;2023-08-21T00:50:51;6.85;;;3.45;;
64857;SDS011;51335;51.148;6.950;2023-08-21T00:51:22;8.77;;;3.55;;
64857;SDS011;51335;51.148;6.950;2023-08-21T00:51:52;7.07;;;3.35;;
64857;SDS011;51335;51.148;6.950;2023-08-21T00:52:23;5.93;;;3.40;;
64857;SDS011;51335;51.148;6.950;2023-08-21T00:52:54;8.18;;;3.35;;
64857;SDS011;51335;51.148;6.950;2023-08-21T00:53:24;9.23;;;3.75;;
64857;SDS011;51335;51.148;6.950;2023-08-21T00:53:55;7.18;;;3.53;;
64857;SDS011;51335;51.148;6.950;2023-08-21T00:54:26;7.18;;;3.60;;
64857;SDS011;51335;51.148;6.950;2023-08-21T00:54:56;6.30;;;3.50;;
64857;SDS011;51335;51.148;6.950;2023-08-21T00:55:27;5.50;;;3.30;;
64857;SDS011;51335;51.148;6.950;2023-08-21T00:55:57;7.07;;;3.30;;
64857;SDS011;51335;51.148;6.950;2023-08-21T00:56:28;7.63;;;3.35;;
64857;SDS011;51335;51.148;6.950;2023-08-21T00:56:58;8.23;;;3.53;;
64857;SDS011;51335;51.148;6.950;2023-08-21T00:57:29;9.40;;;3.75;;
64857;SDS011;51335;51.148;6.950;2023-08-21T00:57:59;7.55;;;3.47;;
64857;SDS011;51335;51.148;6.950;2023-08-21T00:58:31;8.50;;;3.20;;
64857;SDS011;51335;51.148;6.950;2023-08-21T00:59:02;7.35;;;3.58;;
64857;SDS011;51335;51.148;6.950;2023-08-21T00:59:32;11.90;;;4.05;;
64857;SDS011;51335;51.148;6.950;2023-08-21T01:00:03;11.73;;;3.70;;
64857;SDS011;51335;51.148;6.950;2023-08-21T01:00:34;7.97;;;3.60;;
64857;SDS011;51335;51.148;6.950;2023-08-21T01:01:05;7.70;;;3.53;;
64857;SDS011;51335;51.148;6.950;2023-08-21T01:01:35;7.25;;;3.45;;
64857;SDS011;51335;51.148;6.950;2023-08-21T01:02:06;6.40;;;3.60;;
64857;SDS011;51335;51.148;6.950;2023-08-21T01:02:37;8.02;;;3.65;;
64857;SDS011;51335;51.148;6.950;2023-08-21T01:03:07;7.50;;;3.17;;
64857;SDS011;51335;51.148;6.950;2023-08-21T01:03:37;8.40;;;3.30;;
64857;SDS011;51335;51.148;6.950;2023-08-21T01:04:07;7.15;;;3.50;;
64857;SDS011;51335;51.148;6.950;2023-08-21T01:04:38;6.50;;;3.60;;
64857;SDS011;51335;51.148;6.950;2023-08-21T01:05:08;8.63;;;3.22;;
64857;SDS011;51335;51.148;6.950;2023-08-21T01:05:39;9.48;;;3.38;;
64857;SDS011;51335;51.148;6.950;2023-08-21T01:06:09;8.70;;;3.28;;
64857;SDS011;51335;51.148;6.950;2023-08-21T01:06:39;9.60;;;3.35;;
64857;SDS011;51335;51.148;6.950;2023-08-21T01:07:10;10.40;;;3.53;;
64857;SDS011;51335;51.148;6.950;2023-08-21T01:07:44;7.68;;;3.40;;
64857;SDS011;51335;51.148;6.950;2023-08-21T01:09:29;9.38;;;3.67;;
64857;SDS011;51335;51.148;6.950;2023-08-21T01:10:11;9.07;;;3.40;;
64857;SDS011;51335;51.148;6.950;2023-08-21T01:11:30;7.18;;;3.13;;
64857;SDS011;51335;51.148;6.950;2023-08-21T01:12:30;6.60;;;3.13;;
64857;SDS011;51335;51.148;6.950;2023-08-21T01:15:06;5.38;;;3.08;;
64857;SDS011;51335;51.148;6.950;2023-08-21T01:15:37;5.47;;;3.30;;
64857;SDS011;51335;51.148;6.950;2023-08-21T01:16:09;10.13;;;3.53;;
64857;SDS011;51335;51.148;6.950;2023-08-21T01:16:41;7.70;;;2.97;;
64857;SDS011;51335;51.148;6.950;2023-08-21T01:17:13;6.65;;;3.40;;
64857;SDS011;51335;51.148;6.950;2023-08-21T01:17:46;5.22;;;3.38;;
64857;SDS011;51335;51.148;6.950;2023-08-21T01:18:17;6.45;;;3.10;;
64857;SDS011;51335;51.148;6.950;2023-08-21T01:18:48;14.52;;;3.72;;
64857;SDS011;51335;51.148;6.950;2023-08-21T01:19:40;5.63;;;3.40;;
64857;SDS011;51335;51.148;6.950;2023-08-21T01:20:11;11.65;;;3.50;;
64857;SDS011;51335;51.148;6.950;2023-08-21T01:20:42;8.68;;;3.40;;
64857;SDS011;51335;51.148;6.950;2023-08-21T01:21:13;9.13;;;3.80;;
64857;SDS011;51335;51.148;6.950;2023-08-21T01:21:43;8.07;;;3.75;;
64857;SDS011;51335;51.148;6.950;2023-08-21T01:22:14;7.72;;;3.30;;
64857;SDS011;51335;51.148;6.950;2023-08-21T01:22:44;5.68;;;3.60;;
64857;SDS011;51335;51.148;6.950;2023-08-21T01:23:26;7.38;;;3.15;;
64857;SDS011;51335;51.148;6.950;2023-08-21T01:24:06;9.55;;;3.20;;
64857;SDS011;51335;51.148;6.950;2023-08-21T01:24:36;8.75;;;3.15;;
64857;SDS011;51335;51.148;6.950;2023-08-21T01:25:07;10.13;;;3.25;;
64857;SDS011;51335;51.148;6.950;2023-08-21T01:25:38;8.30;;;3.17;;
64857;SDS011;51335;51.148;6.950;2023-08-21T01:26:08;5.43;;;3.38;;
64857;SDS011;51335;51.148;6.950;2023-08-21T01:26:38;9.27;;;3.30;;
64857;SDS011;51335;51.148;6.950;2023-08-21T01:27:09;8.35;;;3.15;;
64857;SDS011;51335;51.148;6.950;2023-08-21T01:27:43;8.02;;;3.80;;
64857;SDS011;51335;51.148;6.950;2023-08-21T01:28:16;7.97;;;3.40;;
64857;SDS011;51335;51.148;6.950;2023-08-21T01:28:46;11.55;;;3.58;;
64857;SDS011;51335;51.148;6.950;2023-08-21T01:29:17;9.23;;;3.50;;
64857;SDS011;51335;51.148;6.950;2023-08-21T01:29:47;8.52;;;3.30;;
64857;SDS011;51335;51.148;6.950;2023-08-21T01:30:18;9.27;;;3.70;;
64857;SDS011;51335;51.148;6.950;2023-08-21T01:30:48;9.35;;;3.50;;
64857;SDS011;51335;51.148;6.950;2023-08-21T01:31:23;6.30;;;3.28;;
64857;SDS011;51335;51.148;6.950;2023-08-21T01:33:17;9.27;;;3.63;;
64857;SDS011;51335;51.148;6.950;2023-08-21T01:33:53;6.70;;;3.28;;
64857;SDS011;51335;51.148;6.950;2023-08-21T01:34:28;7.38;;;3.20;;
64857;SDS011;51335;51.148;6.950;2023-08-21T01:34:58;7.28;;;3.30;;
64857;SDS011;51335;51.148;6.950;2023-08-21T01:35:29;6.90;;;3.55;;
64857;SDS011;51335;51.148;6.950;2023-08-21T01:36:00;9.68;;;3.47;;
64857;SDS011;51335;51.148;6.950;2023-08-21T01:36:33;6.47;;;3.15;;
64857;SDS011;51335;51.148;6.950;2023-08-21T01:37:05;6.22;;;3.15;;
64857;SDS011;51335;51.148;6.950;2023-08-21T01:37:36;7.03;;;3.10;;
64857;SDS011;51335;51.148;6.950;2023-08-21T01:38:07;9.82;;;3.30;;
64857;SDS011;51335;51.148;6.950;2023-08-21T01:38:37;7.53;;;3.05;;
64857;SDS011;51335;51.148;6.950;2023-08-21T01:39:08;9.90;;;3.60;;
64857;SDS011;51335;51.148;6.950;2023-08-21T01:39:39;6.88;;;3.10;;
64857;SDS011;51335;51.148;6.950;2023-08-21T01:40:09;5.13;;;2.95;;
64857;SDS011;51335;51.148;6.950;2023-08-21T01:40:40;7.68;;;3.88;;
64857;SDS011;51335;51.148;6.950;2023-08-21T01:41:10;4.57;;;2.88;;
64857;SDS011;51335;51.148;6.950;2023-08-21T01:41:41;6.88;;;3.20;;
64857;SDS011;51335;51.148;6.950;2023-08-21T01:42:12;5.93;;;3.00;;
64857;SDS011;51335;51.148;6.950;2023-08-21T01:42:42;5.53;;;3.00;;
64857;SDS011;51335;51.148;6.950;2023-08-21T01:43:12;6.78;;;2.70;;
64857;SDS011;51335;51.148;6.950;2023-08-21T01:43:42;5.47;;;2.78;;
64857;SDS011;51335;51.148;6.950;2023-08-21T01:44:13;9.43;;;3.30;;
64857;SDS011;51335;51.148;6.950;2023-08-21T01:44:43;5.60;;;2.90;;
64857;SDS011;51335;51.148;6.950;2023-08-21T01:45:13;6.35;;;2.83;;
64857;SDS011;51335;51.148;6.950;2023-08-21T01:45:44;6.50;;;3.28;;
64857;SDS011;51335;51.148;6.950;2023-08-21T01:46:14;6.25;;;3.20;;
64857;SDS011;51335;51.148;6.950;2023-08-21T01:46:44;8.93;;;3.42;;
64857;SDS011;51335;51.148;6.950;2023-08-21T01:47:15;6.82;;;2.90;;
64857;SDS011;51335;51.148;6.950;2023-08-21T01:47:45;8.75;;;3.42;;
64857;SDS011;51335;51.148;6.950;2023-08-21T01:48:15;7.60;;;3.30;;
64857;SDS011;51335;51.148;6.950;2023-08-21T01:48:46;9.25;;;3.10;;
64857;SDS011;51335;51.148;6.950;2023-08-21T01:49:16;4.82;;;2.88;;
64857;SDS011;51335;51.148;6.950;2023-08-21T01:49:46;5.85;;;3.10;;
64857;SDS011;51335;51.148;6.950;2023-08-21T01:50:16;6.65;;;3.00;;
64857;SDS011;51335;51.148;6.950;2023-08-21T01:50:47;5.40;;;3.17;;
64857;SDS011;51335;51.148;6.950;2023-08-21T01:51:17;6.30;;;2.95;;
64857;SDS011;51335;51.148;6.950;2023-08-21T01:51:47;7.22;;;2.85;;
64857;SDS011;51335;51.148;6.950;2023-08-21T01:52:18;9.18;;;3.15;;
64857;SDS011;51335;51.148;6.950;2023-08-21T01:52:48;8.68;;;3.22;;
64857;SDS011;51335;51.148;6.950;2023-08-21T01:53:19;5.90;;;2.80;;
64857;SDS011;51335;51.148;6.950;2023-08-21T01:53:49;6.28;;;3.08;;
64857;SDS011;51335;51.148;6.950;2023-08-21T01:54:19;6.90;;;2.95;;
64857;SDS011;51335;51.148;6.950;2023-08-21T01:54:50;6.07;;;3.13;;
64857;SDS011;51335;51.148;6.950;2023-08-21T01:55:20;5.47;;;2.78;;
64857;SDS011;51335;51.148;6.950;2023-08-21T01:55:50;9.60;;;2.90;;
64857;SDS011;51335;51.148;6.950;2023-08-21T01:56:21;5.38;;;2.80;;
64857;SDS011;51335;51.148;6.950;2023-08-21T01:56:51;4.53;;;2.80;;
64857;SDS011;51335;51.148;6.950;2023-08-21T01:57:21;10.52;;;3.20;;
64857;SDS011;51335;51.148;6.950;2023-08-21T01:57:51;5.75;;;2.67;;
64857;SDS011;51335;51.148;6.950;2023-08-21T01:58:22;5.05;;;2.97;;
64857;SDS011;51335;51.148;6.950;2023-08-21T01:58:52;7.07;;;2.88;;
64857;SDS011;51335;51.148;6.950;2023-08-21T01:59:23;5.15;;;2.80;;
64857;SDS011;51335;51.148;6.950;2023-08-21T01:59:54;4.88;;;2.85;;
64857;SDS011;51335;51.148;6.950;2023-08-21T02:00:24;4.82;;;2.80;;
64857;SDS011;51335;51.148;6.950;2023-08-21T02:00:54;6.70;;;2.85;;
64857;SDS011;51335;51.148;6.950;2023-08-21T02:01:24;12.10;;;3.45;;
64857;SDS011;51335;51.148;6.950;2023-08-21T02:01:55;7.88;;;3.03;;
64857;SDS011;51335;51.148;6.950;2023-08-21T02:02:25;8.07;;;2.95;;
64857;SDS011;51335;51.148;6.950;2023-08-21T02:02:55;5.30;;;2.80;;
64857;SDS011;51335;51.148;6.950;2023-08-21T02:03:26;7.55;;;3.00;;
64857;SDS011;51335;51.148;6.950;2023-08-21T02:03:56;7.85;;;2.65;;
64857;SDS011;51335;51.148;6.950;2023-08-21T02:04:26;6.93;;;2.63;;
64857;SDS011;51335;51.148;6.950;2023-08-21T02:04:57;6.88;;;2.90;;
64857;SDS011;51335;51.148;6.950;2023-08-21T02:05:27;6.72;;;3.10;;
64857;SDS011;51335;51.148;6.950;2023-08-21T02:05:57;4.95;;;2.70;;
64857;SDS011;51335;51.148;6.950;2023-08-21T02:06:27;7.60;;;2.85;;
64857;SDS011;51335;51.148;6.950;2023-08-21T02:06:58;7.30;;;3.00;;
64857;SDS011;51335;51.148;6.950;2023-08-21T02:07:28;10.30;;;2.75;;
64857;SDS011;51335;51.148;6.950;2023-08-21T02:07:58;6.20;;;2.63;;
64857;SDS011;51335;51.148;6.950;2023-08-21T02:08:32;6.55;;;3.17;;
64857;SDS011;51335;51.148;6.950;2023-08-21T02:09:03;6.90;;;2.95;;
64857;SDS011;51335;51.148;6.950;2023-08-21T02:09:33;5.88;;;3.03;;
64857;SDS011;51335;51.148;6.950;2023-08-21T02:10:03;7.28;;;2.65;;
64857;SDS011;51335;51.148;6.950;2023-08-21T02:10:34;6.97;;;3.00;;
64857;SDS011;51335;51.148;6.950;2023-08-21T02:11:04;7.57;;;2.80;;
64857;SDS011;51335;51.148;6.950;2023-08-21T02:11:35;5.88;;;2.78;;
64857;SDS011;51335;51.148;6.950;2023-08-21T02:12:05;5.13;;;2.70;;
64857;SDS011;51335;51.148;6.950;2023-08-21T02:12:36;6.10;;;2.85;;
64857;SDS011;51335;51.148;6.950;2023-08-21T02:13:06;6.30;;;2.70;;
64857;SDS011;51335;51.148;6.950;2023-08-21T02:13:36;10.35;;;2.92;;
64857;SDS011;51335;51.148;6.950;2023-08-21T02:14:06;4.47;;;2.92;;
64857;SDS011;51335;51.148;6.950;2023-08-21T02:14:37;6.07;;;2.75;;
64857;SDS011;51335;51.148;6.950;2023-08-21T02:15:07;8.30;;;3.00;;
64857;SDS011;51335;51.148;6.950;2023-08-21T02:15:38;5.15;;;2.45;;
64857;SDS011;51335;51.148;6.950;2023-08-21T02:16:08;8.75;;;2.75;;
64857;SDS011;51335;51.148;6.950;2023-08-21T02:16:38;9.35;;;2.55;;
64857;SDS011;51335;51.148;6.950;2023-08-21T02:17:09;5.68;;;2.80;;
64857;SDS011;51335;51.148;6.950;2023-08-21T02:17:39;7.75;;;2.90;;
64857;SDS011;51335;51.148;6.950;2023-08-21T02:18:10;6.43;;;2.90;;
64857;SDS011;51335;51.148;6.950;2023-08-21T02:18:40;5.57;;;2.70;;
64857;SDS011;51335;51.148;6.950;2023-08-21T02:19:10;7.57;;;2.53;;
64857;SDS011;51335;51.148;6.950;2023-08-21T02:19:41;11.82;;;3.03;;
64857;SDS011;51335;51.148;6.950;2023-08-21T02:20:11;5.68;;;2.53;;
64857;SDS011;51335;51.148;6.950;2023-08-21T02:20:41;6.40;;;2.65;;
64857;SDS011;51335;51.148;6.950;2023-08-21T02:21:12;7.43;;;3.03;;
64857;SDS011;51335;51.148;6.950;2023-08-21T02:21:42;6.95;;;2.90;;
64857;SDS011;51335;51.148;6.950;2023-08-21T02:22:13;5.60;;;2.58;;
64857;SDS011;51335;51.148;6.950;2023-08-21T02:22:43;4.07;;;2.50;;
64857;SDS011;51335;51.148;6.950;2023-08-21T02:23:13;9.93;;;2.95;;
64857;SDS011;51335;51.148;6.950;2023-08-21T02:23:43;8.70;;;2.70;;
64857;SDS011;51335;51.148;6.950;2023-08-21T02:24:14;5.22;;;2.70;;
64857;SDS011;51335;51.148;6.950;2023-08-21T02:24:44;7.93;;;2.75;;
64857;SDS011;51335;51.148;6.950;2023-08-21T02:25:14;6.30;;;2.70;;
64857;SDS011;51335;51.148;6.950;2023-08-21T02:25:45;4.93;;;2.78;;
64857;SDS011;51335;51.148;6.950;2023-08-21T02:26:15;6.57;;;2.65;;
64857;SDS011;51335;51.148;6.950;2023-08-21T02:26:45;6.75;;;2.75;;
64857;SDS011;51335;51.148;6.950;2023-08-21T02:27:16;8.90;;;3.15;;
64857;SDS011;51335;51.148;6.950;2023-08-21T02:27:46;5.88;;;3.10;;
64857;SDS011;51335;51.148;6.950;2023-08-21T02:28:16;6.28;;;2.70;;
64857;SDS011;51335;51.148;6.950;2023-08-21T02:28:46;5.18;;;2.80;;
64857;SDS011;51335;51.148;6.950;2023-08-21T02:29:17;4.75;;;2.53;;
64857;SDS011;51335;51.148;6.950;2023-08-21T02:29:47;5.55;;;2.60;;
64857;SDS011;51335;51.148;6.950;2023-08-21T02:30:17;6.63;;;2.63;;
64857;SDS011;51335;51.148;6.950;2023-08-21T02:30:47;8.95;;;2.60;;
64857;SDS011;51335;51.148;6.950;2023-08-21T02:31:18;6.75;;;2.85;;
64857;SDS011;51335;51.148;6.950;2023-08-21T02:31:48;7.70;;;2.58;;
64857;SDS011;51335;51.148;6.950;2023-08-21T02:32:18;8.65;;;2.92;;
64857;SDS011;51335;51.148;6.950;2023-08-21T02:32:49;4.82;;;2.70;;
64857;SDS011;51335;51.148;6.950;2023-08-21T02:33:19;6.72;;;2.58;;
64857;SDS011;51335;51.148;6.950;2023-08-21T02:33:49;4.35;;;2.30;;
64857;SDS011;51335;51.148;6.950;2023-08-21T02:34:19;8.10;;;2.88;;
64857;SDS011;51335;51.148;6.950;2023-08-21T02:34:50;6.93;;;2.83;;
64857;SDS011;51335;51.148;6.950;2023-08-21T02:35:20;5.78;;;3.10;;
64857;SDS011;51335;51.148;6.950;2023-08-21T02:35:50;5.75;;;2.67;;
64857;SDS011;51335;51.148;6.950;2023-08-21T02:36:21;5.82;;;2.83;;
64857;SDS011;51335;51.148;6.950;2023-08-21T02:36:51;10.43;;;3.05;;
64857;SDS011;51335;51.148;6.950;2023-08-21T02:37:21;7.78;;;2.90;;
64857;SDS011;51335;51.148;6.950;2023-08-21T02:37:52;8.70;;;2.80;;
64857;SDS011;51335;51.148;6.950;2023-08-21T02:38:22;4.28;;;2.50;;
64857;SDS011;51335;51.148;6.950;2023-08-21T02:38:52;9.10;;;2.60;;
64857;SDS011;51335;51.148;6.950;2023-08-21T02:39:23;9.18;;;2.70;;
64857;SDS011;51335;51.148;6.950;2023-08-21T02:39:53;5.65;;;2.83;;
64857;SDS011;51335;51.148;6.950;2023-08-21T02:40:23;5.55;;;2.75;;
64857;SDS011;51335;51.148;6.950;2023-08-21T02:40:54;3.88;;;2.65;;
64857;SDS011;51335;51.148;6.950;2023-08-21T02:41:24;5.68;;;2.85;;
64857;SDS011;51335;51.148;6.950;2023-08-21T02:41:54;6.97;;;2.97;;
64857;SDS011;51335;51.148;6.950;2023-08-21T02:42:24;4.43;;;2.45;;
64857;SDS011;51335;51.148;6.950;2023-08-21T02:42:55;8.95;;;2.92;;
64857;SDS011;51335;51.148;6.950;2023-08-21T02:43:26;5.72;;;2.70;;
64857;SDS011;51335;51.148;6.950;2023-08-21T02:43:56;10.85;;;2.83;;
64857;SDS011;51335;51.148;6.950;2023-08-21T02:44:27;6.38;;;2.83;;
64857;SDS011;51335;51.148;6.950;2023-08-21T02:44:57;7.40;;;3.00;;
64857;SDS011;51335;51.148;6.950;2023-08-21T02:45:27;7.72;;;3.00;;
64857;SDS011;51335;51.148;6.950;2023-08-21T02:45:57;4.55;;;3.03;;
64857;SDS011;51335;51.148;6.950;2023-08-21T02:46:28;5.00;;;2.80;;
64857;SDS011;51335;51.148;6.950;2023-08-21T02:46:58;5.32;;;2.63;;
64857;SDS011;51335;51.148;6.950;2023-08-21T02:47:28;7.25;;;2.38;;
64857;SDS011;51335;51.148;6.950;2023-08-21T02:47:59;5.32;;;2.63;;
64857;SDS011;51335;51.148;6.950;2023-08-21T02:48:29;4.60;;;2.72;;
64857;SDS011;51335;51.148;6.950;2023-08-21T02:48:59;6.78;;;2.80;;
64857;SDS011;51335;51.148;6.950;2023-08-21T02:49:29;5.93;;;2.95;;
64857;SDS011;51335;51.148;6.950;2023-08-21T02:50:00;5.63;;;2.60;;
64857;SDS011;51335;51.148;6.950;2023-08-21T02:50:30;5.47;;;2.70;;
64857;SDS011;51335;51.148;6.950;2023-08-21T02:51:00;5.20;;;2.72;;
64857;SDS011;51335;51.148;6.950;2023-08-21T02:51:31;5.88;;;2.72;;
64857;SDS011;51335;51.148;6.950;2023-08-21T02:52:01;10.27;;;3.40;;
64857;SDS011;51335;51.148;6.950;2023-08-21T02:52:32;8.15;;;2.60;;
64857;SDS011;51335;51.148;6.950;2023-08-21T02:53:02;8.43;;;2.72;;
64857;SDS011;51335;51.148;6.950;2023-08-21T02:53:33;7.90;;;3.17;;
64857;SDS011;51335;51.148;6.950;2023-08-21T02:54:03;4.75;;;2.78;;
64857;SDS011;51335;51.148;6.950;2023-08-21T02:54:33;7.50;;;2.90;;
64857;SDS011;51335;51.148;6.950;2023-08-21T02:55:04;5.43;;;2.70;;
64857;SDS011;51335;51.148;6.950;2023-08-21T02:55:35;6.25;;;3.17;;
64857;SDS011;51335;51.148;6.950;2023-08-21T02:56:05;7.88;;;3.00;;
64857;SDS011;51335;51.148;6.950;2023-08-21T02:56:35;4.70;;;2.70;;
64857;SDS011;51335;51.148;6.950;2023-08-21T02:57:06;6.75;;;2.85;;
64857;SDS011;51335;51.148;6.950;2023-08-21T02:57:36;6.35;;;2.92;;
64857;SDS011;51335;51.148;6.950;2023-08-21T02:58:06;6.78;;;2.90;;
64857;SDS011;51335;51.148;6.950;2023-08-21T02:58:37;6.85;;;3.03;;
64857;SDS011;51335;51.148;6.950;2023-08-21T02:59:07;7.05;;;2.80;;
64857;SDS011;51335;51.148;6.950;2023-08-21T02:59:37;6.60;;;2.83;;
64857;SDS011;51335;51.148;6.950;2023-08-21T03:00:07;4.40;;;2.80;;
64857;SDS011;51335;51.148;6.950;2023-08-21T03:00:38;7.57;;;2.90;;
64857;SDS011;51335;51.148;6.950;2023-08-21T03:01:08;6.38;;;3.20;;
64857;SDS011;51335;51.148;6.950;2023-08-21T03:01:39;9.07;;;3.00;;
64857;SDS011;51335;51.148;6.950;2023-08-21T03:02:09;7.97;;;2.70;;
64857;SDS011;51335;51.148;6.950;2023-08-21T03:02:39;7.72;;;2.95;;
64857;SDS011;51335;51.148;6.950;2023-08-21T03:03:09;7.97;;;2.90;;
64857;SDS011;51335;51.148;6.950;2023-08-21T03:03:40;6.63;;;3.10;;
64857;SDS011;51335;51.148;6.950;2023-08-21T03:04:10;8.15;;;3.00;;
64857;SDS011;51335;51.148;6.950;2023-08-21T03:04:40;7.40;;;3.10;;
64857;SDS011;51335;51.148;6.950;2023-08-21T03:05:11;8.52;;;3.03;;
64857;SDS011;51335;51.148;6.950;2023-08-21T03:05:42;7.57;;;2.72;;
64857;SDS011;51335;51.148;6.950;2023-08-21T03:06:12;6.90;;;2.75;;
64857;SDS011;51335;51.148;6.950;2023-08-21T03:06:42;5.55;;;2.75;;
64857;SDS011;51335;51.148;6.950;2023-08-21T03:07:13;5.75;;;2.80;;
64857;SDS011;51335;51.148;6.950;2023-08-21T03:07:43;6.63;;;2.80;;
64857;SDS011;51335;51.148;6.950;2023-08-21T03:08:14;6.03;;;2.70;;
64857;SDS011;51335;51.148;6.950;2023-08-21T03:08:44;5.20;;;2.55;;
64857;SDS011;51335;51.148;6.950;2023-08-21T03:09:14;6.47;;;3.00;;
64857;SDS011;51335;51.148;6.950;2023-08-21T03:09:45;7.90;;;2.83;;
64857;SDS011;51335;51.148;6.950;2023-08-21T03:10:16;6.38;;;2.92;;